<?xml version="1.0" encoding="UTF-8"?><gpx xmlns="http://www.topografix.com/GPX/1/1" version="1.1" creator="iOrient"><trk><name>Рогейн "КурсОр-2024"</name><trkseg><trkpt lat="55.7797229" lon="49.4872408"><time>2024-09-07T07:10:01.433</time></trkpt><trkpt lat="55.7796721" lon="49.4872826"><time>2024-09-07T07:10:06.430</time></trkpt><trkpt lat="55.7796360" lon="49.4873409"><time>2024-09-07T07:10:10.430</time></trkpt><trkpt lat="55.7795944" lon="49.4873942"><time>2024-09-07T07:10:14.427</time></trkpt><trkpt lat="55.7795640" lon="49.4874540"><time>2024-09-07T07:10:18.430</time></trkpt><trkpt lat="55.7795614" lon="49.4854523"><time>2024-09-07T07:13:19.857</time></trkpt><trkpt lat="55.7796247" lon="49.4853913"><time>2024-09-07T07:13:23.430</time></trkpt><trkpt lat="55.7796881" lon="49.4853513"><time>2024-09-07T07:13:25.430</time></trkpt><trkpt lat="55.7797336" lon="49.4853060"><time>2024-09-07T07:13:27.427</time></trkpt><trkpt lat="55.7797842" lon="49.4852503"><time>2024-09-07T07:13:29.430</time></trkpt><trkpt lat="55.7798193" lon="49.4851851"><time>2024-09-07T07:13:31.427</time></trkpt><trkpt lat="55.7798569" lon="49.4851025"><time>2024-09-07T07:13:33.427</time></trkpt><trkpt lat="55.7798862" lon="49.4850269"><time>2024-09-07T07:13:35.427</time></trkpt><trkpt lat="55.7799121" lon="49.4849401"><time>2024-09-07T07:13:37.433</time></trkpt><trkpt lat="55.7799408" lon="49.4848432"><time>2024-09-07T07:13:39.430</time></trkpt><trkpt lat="55.7799577" lon="49.4847456"><time>2024-09-07T07:13:41.430</time></trkpt><trkpt lat="55.7799671" lon="49.4846521"><time>2024-09-07T07:13:43.433</time></trkpt><trkpt lat="55.7799784" lon="49.4845539"><time>2024-09-07T07:13:45.427</time></trkpt><trkpt lat="55.7799941" lon="49.4844571"><time>2024-09-07T07:13:47.433</time></trkpt><trkpt lat="55.7800101" lon="49.4843638"><time>2024-09-07T07:13:49.437</time></trkpt><trkpt lat="55.7800181" lon="49.4842695"><time>2024-09-07T07:13:51.440</time></trkpt><trkpt lat="55.7800131" lon="49.4841760"><time>2024-09-07T07:13:53.427</time></trkpt><trkpt lat="55.7800091" lon="49.4840874"><time>2024-09-07T07:13:55.433</time></trkpt><trkpt lat="55.7800020" lon="49.4839945"><time>2024-09-07T07:13:57.430</time></trkpt><trkpt lat="55.7799898" lon="49.4839057"><time>2024-09-07T07:13:59.427</time></trkpt><trkpt lat="55.7799770" lon="49.4838258"><time>2024-09-07T07:14:01.437</time></trkpt><trkpt lat="55.7799585" lon="49.4837480"><time>2024-09-07T07:14:03.430</time></trkpt><trkpt lat="55.7799380" lon="49.4836625"><time>2024-09-07T07:14:06.427</time></trkpt><trkpt lat="55.7799141" lon="49.4835761"><time>2024-09-07T07:14:09.433</time></trkpt><trkpt lat="55.7798925" lon="49.4834948"><time>2024-09-07T07:14:11.433</time></trkpt><trkpt lat="55.7798635" lon="49.4833990"><time>2024-09-07T07:14:13.430</time></trkpt><trkpt lat="55.7798388" lon="49.4833035"><time>2024-09-07T07:14:15.433</time></trkpt><trkpt lat="55.7798170" lon="49.4832097"><time>2024-09-07T07:14:17.427</time></trkpt><trkpt lat="55.7783812" lon="49.4782486"><time>2024-09-07T07:17:34.693</time></trkpt><trkpt lat="55.7784664" lon="49.4782749"><time>2024-09-07T07:17:35.417</time></trkpt><trkpt lat="55.7784739" lon="49.4782775"><time>2024-09-07T07:17:41.157</time></trkpt><trkpt lat="55.7785103" lon="49.4782947"><time>2024-09-07T07:17:47.430</time></trkpt><trkpt lat="55.7785617" lon="49.4783148"><time>2024-09-07T07:18:02.427</time></trkpt><trkpt lat="55.7785965" lon="49.4783822"><time>2024-09-07T07:18:08.427</time></trkpt><trkpt lat="55.7786444" lon="49.4783979"><time>2024-09-07T07:18:32.427</time></trkpt><trkpt lat="55.7786882" lon="49.4783792"><time>2024-09-07T07:18:35.430</time></trkpt><trkpt lat="55.7787341" lon="49.4784071"><time>2024-09-07T07:18:39.437</time></trkpt><trkpt lat="55.7787779" lon="49.4784864"><time>2024-09-07T07:18:42.423</time></trkpt><trkpt lat="55.7788146" lon="49.4785428"><time>2024-09-07T07:18:44.433</time></trkpt><trkpt lat="55.7788647" lon="49.4786104"><time>2024-09-07T07:18:47.427</time></trkpt><trkpt lat="55.7789070" lon="49.4786533"><time>2024-09-07T07:18:49.427</time></trkpt><trkpt lat="55.7789530" lon="49.4787341"><time>2024-09-07T07:18:52.433</time></trkpt><trkpt lat="55.7789914" lon="49.4788074"><time>2024-09-07T07:18:54.430</time></trkpt><trkpt lat="55.7790355" lon="49.4788888"><time>2024-09-07T07:18:56.437</time></trkpt><trkpt lat="55.7790871" lon="49.4789610"><time>2024-09-07T07:18:58.427</time></trkpt><trkpt lat="55.7791435" lon="49.4790216"><time>2024-09-07T07:19:00.440</time></trkpt><trkpt lat="55.7792030" lon="49.4790711"><time>2024-09-07T07:19:02.430</time></trkpt><trkpt lat="55.7792588" lon="49.4791139"><time>2024-09-07T07:19:04.437</time></trkpt><trkpt lat="55.7793060" lon="49.4791617"><time>2024-09-07T07:19:06.423</time></trkpt><trkpt lat="55.7802074" lon="49.4751557"><time>2024-09-07T07:22:10.017</time></trkpt><trkpt lat="55.7802129" lon="49.4750752"><time>2024-09-07T07:22:11.423</time></trkpt><trkpt lat="55.7802586" lon="49.4749947"><time>2024-09-07T07:22:16.423</time></trkpt><trkpt lat="55.7803000" lon="49.4749389"><time>2024-09-07T07:22:18.423</time></trkpt><trkpt lat="55.7803517" lon="49.4748859"><time>2024-09-07T07:22:20.427</time></trkpt><trkpt lat="55.7804139" lon="49.4748334"><time>2024-09-07T07:22:22.420</time></trkpt><trkpt lat="55.7804602" lon="49.4747902"><time>2024-09-07T07:22:23.423</time></trkpt><trkpt lat="55.7805194" lon="49.4747333"><time>2024-09-07T07:22:25.420</time></trkpt><trkpt lat="55.7805766" lon="49.4746801"><time>2024-09-07T07:22:27.427</time></trkpt><trkpt lat="55.7806306" lon="49.4746233"><time>2024-09-07T07:22:29.427</time></trkpt><trkpt lat="55.7806736" lon="49.4745787"><time>2024-09-07T07:22:31.427</time></trkpt><trkpt lat="55.7807248" lon="49.4745298"><time>2024-09-07T07:22:34.423</time></trkpt><trkpt lat="55.7807557" lon="49.4744533"><time>2024-09-07T07:22:41.423</time></trkpt><trkpt lat="55.7808190" lon="49.4743996"><time>2024-09-07T07:22:44.427</time></trkpt><trkpt lat="55.7809098" lon="49.4744072"><time>2024-09-07T07:22:46.427</time></trkpt><trkpt lat="55.7809578" lon="49.4744184"><time>2024-09-07T07:22:47.430</time></trkpt><trkpt lat="55.7810050" lon="49.4744286"><time>2024-09-07T07:22:48.420</time></trkpt><trkpt lat="55.7810769" lon="49.4744432"><time>2024-09-07T07:22:50.427</time></trkpt><trkpt lat="55.7811241" lon="49.4744647"><time>2024-09-07T07:22:52.427</time></trkpt><trkpt lat="55.7811752" lon="49.4744834"><time>2024-09-07T07:22:55.430</time></trkpt><trkpt lat="55.7812242" lon="49.4744982"><time>2024-09-07T07:22:58.430</time></trkpt><trkpt lat="55.7812818" lon="49.4745325"><time>2024-09-07T07:23:02.440</time></trkpt><trkpt lat="55.7813629" lon="49.4745595"><time>2024-09-07T07:23:04.430</time></trkpt><trkpt lat="55.7814418" lon="49.4745883"><time>2024-09-07T07:23:06.427</time></trkpt><trkpt lat="55.7815118" lon="49.4746180"><time>2024-09-07T07:23:08.430</time></trkpt><trkpt lat="55.7815605" lon="49.4746332"><time>2024-09-07T07:23:11.427</time></trkpt><trkpt lat="55.7816144" lon="49.4746526"><time>2024-09-07T07:23:15.423</time></trkpt><trkpt lat="55.7816719" lon="49.4746730"><time>2024-09-07T07:23:19.660</time></trkpt><trkpt lat="55.7817443" lon="49.4746734"><time>2024-09-07T07:23:21.040</time></trkpt><trkpt lat="55.7818056" lon="49.4746960"><time>2024-09-07T07:23:22.420</time></trkpt><trkpt lat="55.7818591" lon="49.4747297"><time>2024-09-07T07:23:24.423</time></trkpt><trkpt lat="55.7819202" lon="49.4747657"><time>2024-09-07T07:23:26.433</time></trkpt><trkpt lat="55.7819845" lon="49.4747795"><time>2024-09-07T07:23:28.430</time></trkpt><trkpt lat="55.7820491" lon="49.4747901"><time>2024-09-07T07:23:30.427</time></trkpt><trkpt lat="55.7821111" lon="49.4748210"><time>2024-09-07T07:23:32.430</time></trkpt><trkpt lat="55.7821576" lon="49.4748815"><time>2024-09-07T07:23:34.430</time></trkpt><trkpt lat="55.7821994" lon="49.4749402"><time>2024-09-07T07:23:36.430</time></trkpt><trkpt lat="55.7822535" lon="49.4749710"><time>2024-09-07T07:23:39.430</time></trkpt><trkpt lat="55.7822753" lon="49.4750423"><time>2024-09-07T07:23:42.433</time></trkpt><trkpt lat="55.7822494" lon="49.4751284"><time>2024-09-07T07:23:46.427</time></trkpt><trkpt lat="55.7822167" lon="49.4751873"><time>2024-09-07T07:23:49.427</time></trkpt><trkpt lat="55.7822267" lon="49.4752665"><time>2024-09-07T07:23:56.437</time></trkpt><trkpt lat="55.7821859" lon="49.4753103"><time>2024-09-07T07:24:09.433</time></trkpt><trkpt lat="55.7821428" lon="49.4753405"><time>2024-09-07T07:24:13.430</time></trkpt><trkpt lat="55.7820954" lon="49.4753627"><time>2024-09-07T07:24:18.430</time></trkpt><trkpt lat="55.7827430" lon="49.4745844"><time>2024-09-07T07:25:11.417</time></trkpt><trkpt lat="55.7826791" lon="49.4746415"><time>2024-09-07T07:25:12.420</time></trkpt><trkpt lat="55.7826629" lon="49.4747042"><time>2024-09-07T07:25:19.500</time></trkpt><trkpt lat="55.7826313" lon="49.4746769"><time>2024-09-07T07:25:23.427</time></trkpt><trkpt lat="55.7825823" lon="49.4746783"><time>2024-09-07T07:25:25.430</time></trkpt><trkpt lat="55.7825291" lon="49.4747084"><time>2024-09-07T07:25:27.430</time></trkpt><trkpt lat="55.7824736" lon="49.4747478"><time>2024-09-07T07:25:29.430</time></trkpt><trkpt lat="55.7824102" lon="49.4747865"><time>2024-09-07T07:25:31.430</time></trkpt><trkpt lat="55.7823530" lon="49.4748369"><time>2024-09-07T07:25:33.437</time></trkpt><trkpt lat="55.7822987" lon="49.4749111"><time>2024-09-07T07:25:35.427</time></trkpt><trkpt lat="55.7822356" lon="49.4749403"><time>2024-09-07T07:25:37.433</time></trkpt><trkpt lat="55.7821684" lon="49.4749245"><time>2024-09-07T07:25:39.427</time></trkpt><trkpt lat="55.7821023" lon="49.4748752"><time>2024-09-07T07:25:41.423</time></trkpt><trkpt lat="55.7820423" lon="49.4747888"><time>2024-09-07T07:25:43.433</time></trkpt><trkpt lat="55.7819852" lon="49.4747383"><time>2024-09-07T07:25:45.430</time></trkpt><trkpt lat="55.7819180" lon="49.4747196"><time>2024-09-07T07:25:47.427</time></trkpt><trkpt lat="55.7818480" lon="49.4746907"><time>2024-09-07T07:25:49.427</time></trkpt><trkpt lat="55.7817669" lon="49.4746534"><time>2024-09-07T07:25:51.430</time></trkpt><trkpt lat="55.7816969" lon="49.4746375"><time>2024-09-07T07:25:53.437</time></trkpt><trkpt lat="55.7816279" lon="49.4746205"><time>2024-09-07T07:25:55.430</time></trkpt><trkpt lat="55.7815714" lon="49.4745999"><time>2024-09-07T07:25:57.437</time></trkpt><trkpt lat="55.7815230" lon="49.4745801"><time>2024-09-07T07:26:06.447</time></trkpt><trkpt lat="55.7814545" lon="49.4745467"><time>2024-09-07T07:26:33.433</time></trkpt><trkpt lat="55.7813985" lon="49.4745178"><time>2024-09-07T07:26:35.427</time></trkpt><trkpt lat="55.7813371" lon="49.4745018"><time>2024-09-07T07:26:37.423</time></trkpt><trkpt lat="55.7812730" lon="49.4744856"><time>2024-09-07T07:26:39.437</time></trkpt><trkpt lat="55.7812131" lon="49.4744716"><time>2024-09-07T07:26:41.433</time></trkpt><trkpt lat="55.7811595" lon="49.4744532"><time>2024-09-07T07:26:43.427</time></trkpt><trkpt lat="55.7811016" lon="49.4744284"><time>2024-09-07T07:26:45.440</time></trkpt><trkpt lat="55.7810379" lon="49.4744111"><time>2024-09-07T07:26:47.427</time></trkpt><trkpt lat="55.7809715" lon="49.4743957"><time>2024-09-07T07:26:49.427</time></trkpt><trkpt lat="55.7809041" lon="49.4743755"><time>2024-09-07T07:26:51.427</time></trkpt><trkpt lat="55.7808400" lon="49.4743776"><time>2024-09-07T07:26:53.433</time></trkpt><trkpt lat="55.7807894" lon="49.4744033"><time>2024-09-07T07:26:55.430</time></trkpt><trkpt lat="55.7807296" lon="49.4744350"><time>2024-09-07T07:26:57.427</time></trkpt><trkpt lat="55.7806888" lon="49.4744887"><time>2024-09-07T07:26:59.427</time></trkpt><trkpt lat="55.7806474" lon="49.4745457"><time>2024-09-07T07:27:01.427</time></trkpt><trkpt lat="55.7806026" lon="49.4746021"><time>2024-09-07T07:27:03.433</time></trkpt><trkpt lat="55.7805554" lon="49.4746566"><time>2024-09-07T07:27:05.430</time></trkpt><trkpt lat="55.7805035" lon="49.4747154"><time>2024-09-07T07:27:07.430</time></trkpt><trkpt lat="55.7804579" lon="49.4747713"><time>2024-09-07T07:27:09.430</time></trkpt><trkpt lat="55.7804170" lon="49.4748212"><time>2024-09-07T07:27:11.433</time></trkpt><trkpt lat="55.7803766" lon="49.4748625"><time>2024-09-07T07:27:13.430</time></trkpt><trkpt lat="55.7755358" lon="49.4576208"><time>2024-09-07T07:40:08.857</time></trkpt><trkpt lat="55.7754586" lon="49.4577389"><time>2024-09-07T07:40:09.420</time></trkpt><trkpt lat="55.7754132" lon="49.4577267"><time>2024-09-07T07:40:18.423</time></trkpt><trkpt lat="55.7753965" lon="49.4576419"><time>2024-09-07T07:40:32.420</time></trkpt><trkpt lat="55.7753798" lon="49.4575673"><time>2024-09-07T07:40:35.423</time></trkpt><trkpt lat="55.7753678" lon="49.4574815"><time>2024-09-07T07:40:38.463</time></trkpt><trkpt lat="55.7753507" lon="49.4573907"><time>2024-09-07T07:40:42.420</time></trkpt><trkpt lat="55.7753544" lon="49.4573030"><time>2024-09-07T07:40:46.427</time></trkpt><trkpt lat="55.7753712" lon="49.4572148"><time>2024-09-07T07:40:50.427</time></trkpt><trkpt lat="55.7753764" lon="49.4571195"><time>2024-09-07T07:40:54.423</time></trkpt><trkpt lat="55.7753914" lon="49.4570232"><time>2024-09-07T07:40:58.423</time></trkpt><trkpt lat="55.7754045" lon="49.4569448"><time>2024-09-07T07:41:20.427</time></trkpt><trkpt lat="55.7754235" lon="49.4568465"><time>2024-09-07T07:41:24.427</time></trkpt><trkpt lat="55.7754503" lon="49.4567602"><time>2024-09-07T07:41:28.437</time></trkpt><trkpt lat="55.7754743" lon="49.4566776"><time>2024-09-07T07:41:31.430</time></trkpt><trkpt lat="55.7755029" lon="49.4565500"><time>2024-09-07T07:41:33.427</time></trkpt><trkpt lat="55.7755309" lon="49.4564697"><time>2024-09-07T07:41:34.433</time></trkpt><trkpt lat="55.7755606" lon="49.4563866"><time>2024-09-07T07:41:35.430</time></trkpt><trkpt lat="55.7757962" lon="49.4558186"><time>2024-09-07T07:41:43.053</time></trkpt><trkpt lat="55.7758258" lon="49.4557550"><time>2024-09-07T07:41:43.420</time></trkpt><trkpt lat="55.7758629" lon="49.4556452"><time>2024-09-07T07:41:45.427</time></trkpt><trkpt lat="55.7759033" lon="49.4555290"><time>2024-09-07T07:41:47.430</time></trkpt><trkpt lat="55.7759433" lon="49.4554122"><time>2024-09-07T07:41:49.430</time></trkpt><trkpt lat="55.7759793" lon="49.4553049"><time>2024-09-07T07:41:51.430</time></trkpt><trkpt lat="55.7760125" lon="49.4552208"><time>2024-09-07T07:41:53.437</time></trkpt><trkpt lat="55.7760442" lon="49.4551541"><time>2024-09-07T07:41:56.437</time></trkpt><trkpt lat="55.7760818" lon="49.4550868"><time>2024-09-07T07:42:00.437</time></trkpt><trkpt lat="55.7761278" lon="49.4550281"><time>2024-09-07T07:42:04.440</time></trkpt><trkpt lat="55.7761773" lon="49.4549782"><time>2024-09-07T07:42:08.433</time></trkpt><trkpt lat="55.7762330" lon="49.4549607"><time>2024-09-07T07:42:12.430</time></trkpt><trkpt lat="55.7763088" lon="49.4549825"><time>2024-09-07T07:42:15.687</time></trkpt><trkpt lat="55.7764095" lon="49.4550597"><time>2024-09-07T07:42:17.940</time></trkpt><trkpt lat="55.7764629" lon="49.4551179"><time>2024-09-07T07:42:19.413</time></trkpt><trkpt lat="55.7770538" lon="49.4558611"><time>2024-09-07T07:43:12.260</time></trkpt><trkpt lat="55.7772794" lon="49.4558027"><time>2024-09-07T07:43:13.420</time></trkpt><trkpt lat="55.7773316" lon="49.4558010"><time>2024-09-07T07:43:14.420</time></trkpt><trkpt lat="55.7773882" lon="49.4557924"><time>2024-09-07T07:43:16.233</time></trkpt><trkpt lat="55.7774677" lon="49.4557566"><time>2024-09-07T07:43:17.423</time></trkpt><trkpt lat="55.7784951" lon="49.4547060"><time>2024-09-07T07:43:53.697</time></trkpt><trkpt lat="55.7785278" lon="49.4546428"><time>2024-09-07T07:43:58.427</time></trkpt><trkpt lat="55.7785738" lon="49.4545872"><time>2024-09-07T07:44:02.427</time></trkpt><trkpt lat="55.7786191" lon="49.4545527"><time>2024-09-07T07:44:05.430</time></trkpt><trkpt lat="55.7786658" lon="49.4545268"><time>2024-09-07T07:44:07.430</time></trkpt><trkpt lat="55.7787296" lon="49.4544609"><time>2024-09-07T07:44:09.427</time></trkpt><trkpt lat="55.7787881" lon="49.4543903"><time>2024-09-07T07:44:11.437</time></trkpt><trkpt lat="55.7788274" lon="49.4543462"><time>2024-09-07T07:44:13.433</time></trkpt><trkpt lat="55.7788714" lon="49.4542976"><time>2024-09-07T07:44:16.433</time></trkpt><trkpt lat="55.7789208" lon="49.4542458"><time>2024-09-07T07:44:20.423</time></trkpt><trkpt lat="55.7789667" lon="49.4541957"><time>2024-09-07T07:44:24.437</time></trkpt><trkpt lat="55.7790160" lon="49.4541431"><time>2024-09-07T07:44:28.430</time></trkpt><trkpt lat="55.7790673" lon="49.4540888"><time>2024-09-07T07:44:32.430</time></trkpt><trkpt lat="55.7791161" lon="49.4540337"><time>2024-09-07T07:44:36.433</time></trkpt><trkpt lat="55.7791626" lon="49.4539734"><time>2024-09-07T07:44:40.433</time></trkpt><trkpt lat="55.7792096" lon="49.4539157"><time>2024-09-07T07:44:44.437</time></trkpt><trkpt lat="55.7792546" lon="49.4538495"><time>2024-09-07T07:44:48.433</time></trkpt><trkpt lat="55.7792895" lon="49.4537974"><time>2024-09-07T07:44:51.437</time></trkpt><trkpt lat="55.7793391" lon="49.4537149"><time>2024-09-07T07:44:54.433</time></trkpt><trkpt lat="55.7793808" lon="49.4536637"><time>2024-09-07T07:44:57.433</time></trkpt><trkpt lat="55.7795243" lon="49.4538252"><time>2024-09-07T07:45:11.207</time></trkpt><trkpt lat="55.7795529" lon="49.4538926"><time>2024-09-07T07:45:14.427</time></trkpt><trkpt lat="55.7795710" lon="49.4538496"><time>2024-09-07T07:45:17.857</time></trkpt><trkpt lat="55.7795021" lon="49.4538969"><time>2024-09-07T07:45:28.433</time></trkpt><trkpt lat="55.7794692" lon="49.4538195"><time>2024-09-07T07:45:32.427</time></trkpt><trkpt lat="55.7794440" lon="49.4537393"><time>2024-09-07T07:45:36.430</time></trkpt><trkpt lat="55.7794118" lon="49.4536659"><time>2024-09-07T07:45:40.423</time></trkpt><trkpt lat="55.7793626" lon="49.4536823"><time>2024-09-07T07:45:44.430</time></trkpt><trkpt lat="55.7793117" lon="49.4537183"><time>2024-09-07T07:45:48.430</time></trkpt><trkpt lat="55.7792709" lon="49.4537735"><time>2024-09-07T07:45:53.437</time></trkpt><trkpt lat="55.7792333" lon="49.4538266"><time>2024-09-07T07:45:58.430</time></trkpt><trkpt lat="55.7791935" lon="49.4538730"><time>2024-09-07T07:46:02.443</time></trkpt><trkpt lat="55.7791552" lon="49.4539242"><time>2024-09-07T07:46:06.427</time></trkpt><trkpt lat="55.7791121" lon="49.4539700"><time>2024-09-07T07:46:11.433</time></trkpt><trkpt lat="55.7790690" lon="49.4540317"><time>2024-09-07T07:46:15.447</time></trkpt><trkpt lat="55.7790193" lon="49.4540850"><time>2024-09-07T07:46:19.430</time></trkpt><trkpt lat="55.7789789" lon="49.4541310"><time>2024-09-07T07:46:22.430</time></trkpt><trkpt lat="55.7789338" lon="49.4541924"><time>2024-09-07T07:46:25.423</time></trkpt><trkpt lat="55.7788727" lon="49.4542856"><time>2024-09-07T07:46:28.430</time></trkpt><trkpt lat="55.7788310" lon="49.4543224"><time>2024-09-07T07:46:29.423</time></trkpt><trkpt lat="55.7787904" lon="49.4543565"><time>2024-09-07T07:46:30.427</time></trkpt><trkpt lat="55.7787502" lon="49.4543939"><time>2024-09-07T07:46:31.430</time></trkpt><trkpt lat="55.7787100" lon="49.4544308"><time>2024-09-07T07:46:32.433</time></trkpt><trkpt lat="55.7786374" lon="49.4545042"><time>2024-09-07T07:46:34.433</time></trkpt><trkpt lat="55.7785734" lon="49.4545762"><time>2024-09-07T07:46:36.433</time></trkpt><trkpt lat="55.7785097" lon="49.4546459"><time>2024-09-07T07:46:38.427</time></trkpt><trkpt lat="55.7784465" lon="49.4547165"><time>2024-09-07T07:46:40.430</time></trkpt><trkpt lat="55.7783584" lon="49.4547958"><time>2024-09-07T07:46:43.757</time></trkpt><trkpt lat="55.7783072" lon="49.4548634"><time>2024-09-07T07:46:45.463</time></trkpt><trkpt lat="55.7781453" lon="49.4550118"><time>2024-09-07T07:46:50.967</time></trkpt><trkpt lat="55.7780997" lon="49.4550740"><time>2024-09-07T07:46:52.247</time></trkpt><trkpt lat="55.7780563" lon="49.4551418"><time>2024-09-07T07:46:53.723</time></trkpt><trkpt lat="55.7779944" lon="49.4551980"><time>2024-09-07T07:46:55.420</time></trkpt><trkpt lat="55.7779386" lon="49.4552639"><time>2024-09-07T07:46:57.833</time></trkpt><trkpt lat="55.7778779" lon="49.4553351"><time>2024-09-07T07:46:59.427</time></trkpt><trkpt lat="55.7778088" lon="49.4553997"><time>2024-09-07T07:47:02.710</time></trkpt><trkpt lat="55.7777680" lon="49.4554426"><time>2024-09-07T07:47:03.423</time></trkpt><trkpt lat="55.7776432" lon="49.4555604"><time>2024-09-07T07:47:08.220</time></trkpt><trkpt lat="55.7775801" lon="49.4556210"><time>2024-09-07T07:47:10.313</time></trkpt><trkpt lat="55.7775395" lon="49.4556573"><time>2024-09-07T07:47:11.423</time></trkpt><trkpt lat="55.7774865" lon="49.4556888"><time>2024-09-07T07:47:12.427</time></trkpt><trkpt lat="55.7774145" lon="49.4557232"><time>2024-09-07T07:47:14.433</time></trkpt><trkpt lat="55.7773319" lon="49.4557332"><time>2024-09-07T07:47:17.590</time></trkpt><trkpt lat="55.7772811" lon="49.4557399"><time>2024-09-07T07:47:18.433</time></trkpt><trkpt lat="55.7772062" lon="49.4557372"><time>2024-09-07T07:47:21.063</time></trkpt><trkpt lat="55.7771393" lon="49.4557141"><time>2024-09-07T07:47:22.430</time></trkpt><trkpt lat="55.7770958" lon="49.4556781"><time>2024-09-07T07:47:24.443</time></trkpt><trkpt lat="55.7770471" lon="49.4556512"><time>2024-09-07T07:47:25.430</time></trkpt><trkpt lat="55.7755474" lon="49.4547936"><time>2024-09-07T07:49:11.390</time></trkpt><trkpt lat="55.7755201" lon="49.4548751"><time>2024-09-07T07:49:13.423</time></trkpt><trkpt lat="55.7754711" lon="49.4548771"><time>2024-09-07T07:49:17.427</time></trkpt><trkpt lat="55.7754234" lon="49.4548306"><time>2024-09-07T07:49:21.437</time></trkpt><trkpt lat="55.7753852" lon="49.4547556"><time>2024-09-07T07:49:25.497</time></trkpt><trkpt lat="55.7753406" lon="49.4547014"><time>2024-09-07T07:49:29.430</time></trkpt><trkpt lat="55.7753025" lon="49.4546358"><time>2024-09-07T07:49:33.433</time></trkpt><trkpt lat="55.7752692" lon="49.4545588"><time>2024-09-07T07:49:37.433</time></trkpt><trkpt lat="55.7752252" lon="49.4544972"><time>2024-09-07T07:49:41.437</time></trkpt><trkpt lat="55.7751819" lon="49.4544378"><time>2024-09-07T07:49:45.440</time></trkpt><trkpt lat="55.7751415" lon="49.4543706"><time>2024-09-07T07:49:49.433</time></trkpt><trkpt lat="55.7742114" lon="49.4531624"><time>2024-09-07T07:50:58.580</time></trkpt><trkpt lat="55.7741487" lon="49.4531717"><time>2024-09-07T07:51:02.650</time></trkpt><trkpt lat="55.7740551" lon="49.4526265"><time>2024-09-07T07:51:45.060</time></trkpt><trkpt lat="55.7740146" lon="49.4525580"><time>2024-09-07T07:51:46.430</time></trkpt><trkpt lat="55.7739768" lon="49.4524938"><time>2024-09-07T07:51:48.417</time></trkpt><trkpt lat="55.7739277" lon="49.4524434"><time>2024-09-07T07:51:51.423</time></trkpt><trkpt lat="55.7738814" lon="49.4523878"><time>2024-09-07T07:51:55.443</time></trkpt><trkpt lat="55.7738110" lon="49.4523408"><time>2024-09-07T07:52:01.077</time></trkpt><trkpt lat="55.7737729" lon="49.4522789"><time>2024-09-07T07:52:04.440</time></trkpt><trkpt lat="55.7737008" lon="49.4522265"><time>2024-09-07T07:52:10.410</time></trkpt><trkpt lat="55.7736619" lon="49.4521628"><time>2024-09-07T07:52:13.430</time></trkpt><trkpt lat="55.7736170" lon="49.4521121"><time>2024-09-07T07:52:17.430</time></trkpt><trkpt lat="55.7733239" lon="49.4518264"><time>2024-09-07T07:52:36.367</time></trkpt><trkpt lat="55.7732648" lon="49.4517197"><time>2024-09-07T07:52:38.427</time></trkpt><trkpt lat="55.7732277" lon="49.4516718"><time>2024-09-07T07:52:39.427</time></trkpt><trkpt lat="55.7731281" lon="49.4515613"><time>2024-09-07T07:52:42.557</time></trkpt><trkpt lat="55.7730780" lon="49.4514944"><time>2024-09-07T07:52:43.427</time></trkpt><trkpt lat="55.7730316" lon="49.4514425"><time>2024-09-07T07:52:45.130</time></trkpt><trkpt lat="55.7729632" lon="49.4513689"><time>2024-09-07T07:52:46.420</time></trkpt><trkpt lat="55.7729039" lon="49.4513024"><time>2024-09-07T07:52:48.320</time></trkpt><trkpt lat="55.7728256" lon="49.4512340"><time>2024-09-07T07:52:50.473</time></trkpt><trkpt lat="55.7727732" lon="49.4511813"><time>2024-09-07T07:52:51.423</time></trkpt><trkpt lat="55.7726628" lon="49.4510827"><time>2024-09-07T07:52:54.910</time></trkpt><trkpt lat="55.7726133" lon="49.4510357"><time>2024-09-07T07:52:56.230</time></trkpt><trkpt lat="55.7725734" lon="49.4509914"><time>2024-09-07T07:52:57.553</time></trkpt><trkpt lat="55.7725292" lon="49.4509444"><time>2024-09-07T07:52:58.437</time></trkpt><trkpt lat="55.7709485" lon="49.4501138"><time>2024-09-07T07:55:24.923</time></trkpt><trkpt lat="55.7709311" lon="49.4501983"><time>2024-09-07T07:55:26.423</time></trkpt><trkpt lat="55.7708911" lon="49.4502744"><time>2024-09-07T07:55:30.423</time></trkpt><trkpt lat="55.7708588" lon="49.4503325"><time>2024-09-07T07:55:33.433</time></trkpt><trkpt lat="55.7708215" lon="49.4503997"><time>2024-09-07T07:55:37.423</time></trkpt><trkpt lat="55.7707830" lon="49.4504642"><time>2024-09-07T07:55:41.430</time></trkpt><trkpt lat="55.7707558" lon="49.4505310"><time>2024-09-07T07:55:45.437</time></trkpt><trkpt lat="55.7707222" lon="49.4505903"><time>2024-09-07T07:55:49.433</time></trkpt><trkpt lat="55.7706893" lon="49.4506505"><time>2024-09-07T07:55:53.433</time></trkpt><trkpt lat="55.7706520" lon="49.4507172"><time>2024-09-07T07:55:58.427</time></trkpt><trkpt lat="55.7706128" lon="49.4507815"><time>2024-09-07T07:56:02.430</time></trkpt><trkpt lat="55.7705729" lon="49.4508473"><time>2024-09-07T07:56:06.423</time></trkpt><trkpt lat="55.7705317" lon="49.4509153"><time>2024-09-07T07:56:10.427</time></trkpt><trkpt lat="55.7704978" lon="49.4509869"><time>2024-09-07T07:56:14.433</time></trkpt><trkpt lat="55.7704634" lon="49.4510571"><time>2024-09-07T07:56:18.433</time></trkpt><trkpt lat="55.7704279" lon="49.4511206"><time>2024-09-07T07:56:22.437</time></trkpt><trkpt lat="55.7703915" lon="49.4511754"><time>2024-09-07T07:56:26.430</time></trkpt><trkpt lat="55.7703429" lon="49.4512108"><time>2024-09-07T07:56:30.430</time></trkpt><trkpt lat="55.7702904" lon="49.4511943"><time>2024-09-07T07:56:34.427</time></trkpt><trkpt lat="55.7702355" lon="49.4511890"><time>2024-09-07T07:56:38.437</time></trkpt><trkpt lat="55.7701847" lon="49.4511542"><time>2024-09-07T07:56:42.433</time></trkpt><trkpt lat="55.7676995" lon="49.4485249"><time>2024-09-07T08:14:55.867</time></trkpt><trkpt lat="55.7677035" lon="49.4484879"><time>2024-09-07T08:14:58.597</time></trkpt><trkpt lat="55.7676719" lon="49.4484530"><time>2024-09-07T08:15:03.430</time></trkpt><trkpt lat="55.7676240" lon="49.4484163"><time>2024-09-07T08:15:08.433</time></trkpt><trkpt lat="55.7675776" lon="49.4483720"><time>2024-09-07T08:15:13.437</time></trkpt><trkpt lat="55.7675269" lon="49.4483420"><time>2024-09-07T08:15:27.447</time></trkpt><trkpt lat="55.7674826" lon="49.4483163"><time>2024-09-07T08:15:32.437</time></trkpt><trkpt lat="55.7674363" lon="49.4482916"><time>2024-09-07T08:15:37.440</time></trkpt><trkpt lat="55.7673892" lon="49.4482498"><time>2024-09-07T08:15:42.437</time></trkpt><trkpt lat="55.7673566" lon="49.4481741"><time>2024-09-07T08:15:47.437</time></trkpt><trkpt lat="55.7673198" lon="49.4481161"><time>2024-09-07T08:15:53.437</time></trkpt><trkpt lat="55.7660508" lon="49.4507790"><time>2024-09-07T08:22:36.740</time></trkpt><trkpt lat="55.7661024" lon="49.4507557"><time>2024-09-07T08:22:38.430</time></trkpt><trkpt lat="55.7660848" lon="49.4508340"><time>2024-09-07T08:22:41.430</time></trkpt><trkpt lat="55.7660881" lon="49.4509345"><time>2024-09-07T08:22:45.433</time></trkpt><trkpt lat="55.7661006" lon="49.4510192"><time>2024-09-07T08:22:49.427</time></trkpt><trkpt lat="55.7661120" lon="49.4511068"><time>2024-09-07T08:22:53.437</time></trkpt><trkpt lat="55.7661222" lon="49.4511924"><time>2024-09-07T08:22:57.433</time></trkpt><trkpt lat="55.7661321" lon="49.4512814"><time>2024-09-07T08:23:01.437</time></trkpt><trkpt lat="55.7661433" lon="49.4513716"><time>2024-09-07T08:23:05.437</time></trkpt><trkpt lat="55.7661479" lon="49.4514619"><time>2024-09-07T08:23:09.430</time></trkpt><trkpt lat="55.7661528" lon="49.4515497"><time>2024-09-07T08:23:13.433</time></trkpt><trkpt lat="55.7661579" lon="49.4516464"><time>2024-09-07T08:23:17.423</time></trkpt><trkpt lat="55.7661538" lon="49.4517415"><time>2024-09-07T08:23:21.430</time></trkpt><trkpt lat="55.7661470" lon="49.4518355"><time>2024-09-07T08:23:25.430</time></trkpt><trkpt lat="55.7661294" lon="49.4519271"><time>2024-09-07T08:23:29.443</time></trkpt><trkpt lat="55.7661276" lon="49.4520223"><time>2024-09-07T08:23:33.427</time></trkpt><trkpt lat="55.7661280" lon="49.4521252"><time>2024-09-07T08:23:37.437</time></trkpt><trkpt lat="55.7661263" lon="49.4522372"><time>2024-09-07T08:23:42.800</time></trkpt><trkpt lat="55.7661201" lon="49.4523172"><time>2024-09-07T08:23:45.433</time></trkpt><trkpt lat="55.7660835" lon="49.4529861"><time>2024-09-07T08:24:10.637</time></trkpt><trkpt lat="55.7660734" lon="49.4530948"><time>2024-09-07T08:24:13.427</time></trkpt><trkpt lat="55.7660805" lon="49.4531787"><time>2024-09-07T08:24:15.430</time></trkpt><trkpt lat="55.7660790" lon="49.4532752"><time>2024-09-07T08:24:18.433</time></trkpt><trkpt lat="55.7660834" lon="49.4533704"><time>2024-09-07T08:24:22.430</time></trkpt><trkpt lat="55.7660964" lon="49.4534720"><time>2024-09-07T08:24:26.430</time></trkpt><trkpt lat="55.7661169" lon="49.4535683"><time>2024-09-07T08:24:30.437</time></trkpt><trkpt lat="55.7661444" lon="49.4536379"><time>2024-09-07T08:24:33.440</time></trkpt><trkpt lat="55.7661769" lon="49.4536933"><time>2024-09-07T08:24:36.443</time></trkpt><trkpt lat="55.7662156" lon="49.4537704"><time>2024-09-07T08:24:40.433</time></trkpt><trkpt lat="55.7662503" lon="49.4538554"><time>2024-09-07T08:24:44.443</time></trkpt><trkpt lat="55.7662868" lon="49.4539362"><time>2024-09-07T08:24:48.437</time></trkpt><trkpt lat="55.7663224" lon="49.4540125"><time>2024-09-07T08:24:52.437</time></trkpt><trkpt lat="55.7663602" lon="49.4540851"><time>2024-09-07T08:24:56.433</time></trkpt><trkpt lat="55.7663985" lon="49.4541573"><time>2024-09-07T08:25:00.433</time></trkpt><trkpt lat="55.7664359" lon="49.4542336"><time>2024-09-07T08:25:04.437</time></trkpt><trkpt lat="55.7664754" lon="49.4543141"><time>2024-09-07T08:25:08.440</time></trkpt><trkpt lat="55.7665074" lon="49.4543773"><time>2024-09-07T08:25:11.537</time></trkpt><trkpt lat="55.7665400" lon="49.4544346"><time>2024-09-07T08:25:28.443</time></trkpt><trkpt lat="55.7669226" lon="49.4551738"><time>2024-09-07T08:26:03.820</time></trkpt><trkpt lat="55.7669675" lon="49.4552813"><time>2024-09-07T08:26:04.430</time></trkpt><trkpt lat="55.7677831" lon="49.4573637"><time>2024-09-07T08:27:33.803</time></trkpt><trkpt lat="55.7677811" lon="49.4574782"><time>2024-09-07T08:27:36.433</time></trkpt><trkpt lat="55.7677818" lon="49.4575594"><time>2024-09-07T08:27:39.427</time></trkpt><trkpt lat="55.7677841" lon="49.4576441"><time>2024-09-07T08:27:42.427</time></trkpt><trkpt lat="55.7677829" lon="49.4577241"><time>2024-09-07T08:27:45.427</time></trkpt><trkpt lat="55.7677802" lon="49.4578294"><time>2024-09-07T08:27:49.430</time></trkpt><trkpt lat="55.7677779" lon="49.4579338"><time>2024-09-07T08:27:53.430</time></trkpt><trkpt lat="55.7677714" lon="49.4580143"><time>2024-09-07T08:27:56.430</time></trkpt><trkpt lat="55.7677692" lon="49.4580951"><time>2024-09-07T08:27:59.433</time></trkpt><trkpt lat="55.7677624" lon="49.4582006"><time>2024-09-07T08:28:03.433</time></trkpt><trkpt lat="55.7677549" lon="49.4582797"><time>2024-09-07T08:28:06.433</time></trkpt><trkpt lat="55.7677494" lon="49.4583832"><time>2024-09-07T08:28:10.437</time></trkpt><trkpt lat="55.7677400" lon="49.4584624"><time>2024-09-07T08:28:13.437</time></trkpt><trkpt lat="55.7677364" lon="49.4585681"><time>2024-09-07T08:28:17.437</time></trkpt><trkpt lat="55.7677243" lon="49.4586920"><time>2024-09-07T08:28:20.433</time></trkpt><trkpt lat="55.7677119" lon="49.4587781"><time>2024-09-07T08:28:22.443</time></trkpt><trkpt lat="55.7676971" lon="49.4588692"><time>2024-09-07T08:28:25.437</time></trkpt><trkpt lat="55.7653998" lon="49.4681170"><time>2024-09-07T08:34:09.867</time></trkpt><trkpt lat="55.7653620" lon="49.4681671"><time>2024-09-07T08:34:11.437</time></trkpt><trkpt lat="55.7653333" lon="49.4682477"><time>2024-09-07T08:34:14.440</time></trkpt><trkpt lat="55.7652993" lon="49.4683145"><time>2024-09-07T08:34:18.437</time></trkpt><trkpt lat="55.7652536" lon="49.4684094"><time>2024-09-07T08:34:21.437</time></trkpt><trkpt lat="55.7652019" lon="49.4684863"><time>2024-09-07T08:34:23.437</time></trkpt><trkpt lat="55.7651490" lon="49.4685580"><time>2024-09-07T08:34:25.433</time></trkpt><trkpt lat="55.7651183" lon="49.4686382"><time>2024-09-07T08:34:27.437</time></trkpt><trkpt lat="55.7650769" lon="49.4687237"><time>2024-09-07T08:34:29.433</time></trkpt><trkpt lat="55.7650531" lon="49.4687989"><time>2024-09-07T08:34:31.433</time></trkpt><trkpt lat="55.7650164" lon="49.4688817"><time>2024-09-07T08:34:33.433</time></trkpt><trkpt lat="55.7649737" lon="49.4689701"><time>2024-09-07T08:34:35.437</time></trkpt><trkpt lat="55.7649340" lon="49.4690551"><time>2024-09-07T08:34:37.440</time></trkpt><trkpt lat="55.7649083" lon="49.4691598"><time>2024-09-07T08:34:39.430</time></trkpt><trkpt lat="55.7648799" lon="49.4692744"><time>2024-09-07T08:34:41.433</time></trkpt><trkpt lat="55.7648598" lon="49.4693808"><time>2024-09-07T08:34:44.430</time></trkpt><trkpt lat="55.7648579" lon="49.4694929"><time>2024-09-07T08:34:46.437</time></trkpt><trkpt lat="55.7648570" lon="49.4696097"><time>2024-09-07T08:34:48.437</time></trkpt><trkpt lat="55.7648547" lon="49.4697350"><time>2024-09-07T08:34:50.430</time></trkpt><trkpt lat="55.7648520" lon="49.4698451"><time>2024-09-07T08:34:52.433</time></trkpt><trkpt lat="55.7648552" lon="49.4699477"><time>2024-09-07T08:34:54.433</time></trkpt><trkpt lat="55.7675839" lon="49.4895114"><time>2024-09-07T08:53:00.857</time></trkpt><trkpt lat="55.7676470" lon="49.4894104"><time>2024-09-07T08:53:01.860</time></trkpt><trkpt lat="55.7676235" lon="49.4893138"><time>2024-09-07T08:53:04.433</time></trkpt><trkpt lat="55.7676235" lon="49.4893138"><time>2024-09-07T08:53:04.767</time></trkpt><trkpt lat="55.7676318" lon="49.4892326"><time>2024-09-07T08:53:09.433</time></trkpt><trkpt lat="55.7676041" lon="49.4891581"><time>2024-09-07T08:53:15.437</time></trkpt><trkpt lat="55.7676143" lon="49.4890786"><time>2024-09-07T08:53:19.440</time></trkpt><trkpt lat="55.7676431" lon="49.4889977"><time>2024-09-07T08:53:23.447</time></trkpt><trkpt lat="55.7676213" lon="49.4889258"><time>2024-09-07T08:53:28.440</time></trkpt><trkpt lat="55.7675871" lon="49.4888601"><time>2024-09-07T08:53:33.440</time></trkpt><trkpt lat="55.7675319" lon="49.4888671"><time>2024-09-07T08:53:37.440</time></trkpt><trkpt lat="55.7674972" lon="49.4888133"><time>2024-09-07T08:53:42.443</time></trkpt><trkpt lat="55.7675017" lon="49.4887230"><time>2024-09-07T08:53:47.440</time></trkpt><trkpt lat="55.7675182" lon="49.4886334"><time>2024-09-07T08:53:52.440</time></trkpt><trkpt lat="55.7674894" lon="49.4885457"><time>2024-09-07T08:53:57.437</time></trkpt><trkpt lat="55.7700705" lon="49.4859376"><time>2024-09-07T09:08:10.207</time></trkpt><trkpt lat="55.7701334" lon="49.4859424"><time>2024-09-07T09:08:10.853</time></trkpt><trkpt lat="55.7701720" lon="49.4859870"><time>2024-09-07T09:08:12.857</time></trkpt><trkpt lat="55.7701664" lon="49.4859014"><time>2024-09-07T09:08:42.457</time></trkpt><trkpt lat="55.7701943" lon="49.4858023"><time>2024-09-07T09:08:44.440</time></trkpt><trkpt lat="55.7702245" lon="49.4856862"><time>2024-09-07T09:08:46.433</time></trkpt><trkpt lat="55.7702587" lon="49.4855697"><time>2024-09-07T09:08:48.437</time></trkpt><trkpt lat="55.7703000" lon="49.4854423"><time>2024-09-07T09:08:50.437</time></trkpt><trkpt lat="55.7703323" lon="49.4853097"><time>2024-09-07T09:08:52.440</time></trkpt><trkpt lat="55.7703594" lon="49.4851842"><time>2024-09-07T09:08:54.437</time></trkpt><trkpt lat="55.7703864" lon="49.4850595"><time>2024-09-07T09:08:56.437</time></trkpt><trkpt lat="55.7704166" lon="49.4849305"><time>2024-09-07T09:08:58.433</time></trkpt><trkpt lat="55.7704480" lon="49.4848161"><time>2024-09-07T09:09:00.437</time></trkpt><trkpt lat="55.7704841" lon="49.4846889"><time>2024-09-07T09:09:02.433</time></trkpt><trkpt lat="55.7705167" lon="49.4845677"><time>2024-09-07T09:09:04.433</time></trkpt><trkpt lat="55.7705374" lon="49.4844527"><time>2024-09-07T09:09:06.433</time></trkpt><trkpt lat="55.7705451" lon="49.4843259"><time>2024-09-07T09:09:08.440</time></trkpt><trkpt lat="55.7705461" lon="49.4842137"><time>2024-09-07T09:09:10.437</time></trkpt><trkpt lat="55.7705438" lon="49.4841278"><time>2024-09-07T09:09:13.433</time></trkpt><trkpt lat="55.7705510" lon="49.4840398"><time>2024-09-07T09:09:17.440</time></trkpt><trkpt lat="55.7705570" lon="49.4839588"><time>2024-09-07T09:09:21.440</time></trkpt><trkpt lat="55.7705619" lon="49.4838708"><time>2024-09-07T09:09:25.433</time></trkpt><trkpt lat="55.7705719" lon="49.4837883"><time>2024-09-07T09:09:40.440</time></trkpt><trkpt lat="55.7705765" lon="49.4836953"><time>2024-09-07T09:09:44.443</time></trkpt><trkpt lat="55.7705812" lon="49.4836038"><time>2024-09-07T09:09:48.437</time></trkpt><trkpt lat="55.7705845" lon="49.4835078"><time>2024-09-07T09:09:52.437</time></trkpt><trkpt lat="55.7706185" lon="49.4834346"><time>2024-09-07T09:09:56.440</time></trkpt><trkpt lat="55.7706327" lon="49.4833338"><time>2024-09-07T09:10:00.437</time></trkpt><trkpt lat="55.7706282" lon="49.4832323"><time>2024-09-07T09:10:04.433</time></trkpt><trkpt lat="55.7706265" lon="49.4831332"><time>2024-09-07T09:10:08.443</time></trkpt><trkpt lat="55.7706292" lon="49.4830326"><time>2024-09-07T09:10:12.447</time></trkpt><trkpt lat="55.7706320" lon="49.4829467"><time>2024-09-07T09:10:16.440</time></trkpt><trkpt lat="55.7706140" lon="49.4828397"><time>2024-09-07T09:10:20.443</time></trkpt><trkpt lat="55.7706132" lon="49.4827553"><time>2024-09-07T09:10:22.437</time></trkpt><trkpt lat="55.7705968" lon="49.4826733"><time>2024-09-07T09:10:23.450</time></trkpt><trkpt lat="55.7705888" lon="49.4825717"><time>2024-09-07T09:10:25.443</time></trkpt><trkpt lat="55.7705903" lon="49.4824911"><time>2024-09-07T09:10:32.447</time></trkpt><trkpt lat="55.7705829" lon="49.4823961"><time>2024-09-07T09:10:40.447</time></trkpt><trkpt lat="55.7705808" lon="49.4823066"><time>2024-09-07T09:10:44.450</time></trkpt><trkpt lat="55.7705581" lon="49.4821996"><time>2024-09-07T09:10:48.450</time></trkpt><trkpt lat="55.7705368" lon="49.4820828"><time>2024-09-07T09:10:50.447</time></trkpt><trkpt lat="55.7705139" lon="49.4819617"><time>2024-09-07T09:10:52.447</time></trkpt><trkpt lat="55.7704946" lon="49.4818269"><time>2024-09-07T09:10:54.450</time></trkpt><trkpt lat="55.7704785" lon="49.4816991"><time>2024-09-07T09:10:56.443</time></trkpt><trkpt lat="55.7704532" lon="49.4815710"><time>2024-09-07T09:10:58.443</time></trkpt><trkpt lat="55.7704304" lon="49.4814470"><time>2024-09-07T09:11:00.443</time></trkpt><trkpt lat="55.7704180" lon="49.4813259"><time>2024-09-07T09:11:02.440</time></trkpt><trkpt lat="55.7704113" lon="49.4812079"><time>2024-09-07T09:11:04.447</time></trkpt><trkpt lat="55.7703975" lon="49.4810894"><time>2024-09-07T09:11:06.447</time></trkpt><trkpt lat="55.7703784" lon="49.4809737"><time>2024-09-07T09:11:08.443</time></trkpt><trkpt lat="55.7703513" lon="49.4808601"><time>2024-09-07T09:11:10.443</time></trkpt><trkpt lat="55.7703243" lon="49.4807367"><time>2024-09-07T09:11:12.447</time></trkpt><trkpt lat="55.7703058" lon="49.4806361"><time>2024-09-07T09:11:14.443</time></trkpt><trkpt lat="55.7703086" lon="49.4805435"><time>2024-09-07T09:11:17.440</time></trkpt><trkpt lat="55.7703096" lon="49.4804553"><time>2024-09-07T09:11:21.443</time></trkpt><trkpt lat="55.7702971" lon="49.4803739"><time>2024-09-07T09:11:25.440</time></trkpt><trkpt lat="55.7702934" lon="49.4802894"><time>2024-09-07T09:11:29.447</time></trkpt><trkpt lat="55.7698597" lon="49.4791809"><time>2024-09-07T09:12:13.430</time></trkpt><trkpt lat="55.7698647" lon="49.4790997"><time>2024-09-07T09:12:17.430</time></trkpt><trkpt lat="55.7698355" lon="49.4790352"><time>2024-09-07T09:12:21.437</time></trkpt><trkpt lat="55.7698005" lon="49.4789803"><time>2024-09-07T09:12:25.433</time></trkpt><trkpt lat="55.7697663" lon="49.4789197"><time>2024-09-07T09:12:29.437</time></trkpt><trkpt lat="55.7697305" lon="49.4788574"><time>2024-09-07T09:12:32.443</time></trkpt><trkpt lat="55.7696811" lon="49.4788042"><time>2024-09-07T09:12:34.437</time></trkpt><trkpt lat="55.7696280" lon="49.4787481"><time>2024-09-07T09:12:36.440</time></trkpt><trkpt lat="55.7695704" lon="49.4786998"><time>2024-09-07T09:12:38.437</time></trkpt><trkpt lat="55.7695100" lon="49.4786619"><time>2024-09-07T09:12:40.440</time></trkpt><trkpt lat="55.7694586" lon="49.4786237"><time>2024-09-07T09:12:42.437</time></trkpt><trkpt lat="55.7694067" lon="49.4786051"><time>2024-09-07T09:12:45.437</time></trkpt><trkpt lat="55.7693558" lon="49.4785724"><time>2024-09-07T09:12:49.427</time></trkpt><trkpt lat="55.7693045" lon="49.4785887"><time>2024-09-07T09:12:53.433</time></trkpt><trkpt lat="55.7692581" lon="49.4786092"><time>2024-09-07T09:12:57.440</time></trkpt><trkpt lat="55.7692246" lon="49.4785403"><time>2024-09-07T09:13:01.443</time></trkpt><trkpt lat="55.7691935" lon="49.4784612"><time>2024-09-07T09:13:05.437</time></trkpt><trkpt lat="55.7691722" lon="49.4783681"><time>2024-09-07T09:13:09.433</time></trkpt><trkpt lat="55.7691701" lon="49.4782828"><time>2024-09-07T09:13:13.437</time></trkpt><trkpt lat="55.7691860" lon="49.4782047"><time>2024-09-07T09:13:17.433</time></trkpt><trkpt lat="55.7692368" lon="49.4782356"><time>2024-09-07T09:13:20.433</time></trkpt><trkpt lat="55.7691828" lon="49.4779160"><time>2024-09-07T09:13:43.557</time></trkpt><trkpt lat="55.7691683" lon="49.4778389"><time>2024-09-07T09:13:58.427</time></trkpt><trkpt lat="55.7691528" lon="49.4777540"><time>2024-09-07T09:14:02.440</time></trkpt><trkpt lat="55.7691112" lon="49.4777148"><time>2024-09-07T09:14:04.437</time></trkpt><trkpt lat="55.7690662" lon="49.4776923"><time>2024-09-07T09:14:06.437</time></trkpt><trkpt lat="55.7690173" lon="49.4776713"><time>2024-09-07T09:14:09.440</time></trkpt><trkpt lat="55.7689707" lon="49.4777147"><time>2024-09-07T09:14:13.437</time></trkpt><trkpt lat="55.7689483" lon="49.4778036"><time>2024-09-07T09:14:17.440</time></trkpt><trkpt lat="55.7689358" lon="49.4778940"><time>2024-09-07T09:14:22.437</time></trkpt><trkpt lat="55.7689695" lon="49.4779662"><time>2024-09-07T09:14:26.440</time></trkpt><trkpt lat="55.7690094" lon="49.4780096"><time>2024-09-07T09:14:30.443</time></trkpt><trkpt lat="55.7690615" lon="49.4780204"><time>2024-09-07T09:14:35.433</time></trkpt><trkpt lat="55.7690661" lon="49.4779238"><time>2024-09-07T09:14:42.440</time></trkpt><trkpt lat="55.7690701" lon="49.4777333"><time>2024-09-07T09:15:03.807</time></trkpt><trkpt lat="55.7691278" lon="49.4777528"><time>2024-09-07T09:15:11.443</time></trkpt><trkpt lat="55.7691801" lon="49.4777542"><time>2024-09-07T09:15:18.440</time></trkpt><trkpt lat="55.7692062" lon="49.4778292"><time>2024-09-07T09:15:23.440</time></trkpt><trkpt lat="55.7692496" lon="49.4778662"><time>2024-09-07T09:15:28.443</time></trkpt><trkpt lat="55.7692873" lon="49.4778228"><time>2024-09-07T09:15:34.440</time></trkpt><trkpt lat="55.7693156" lon="49.4777470"><time>2024-09-07T09:15:41.457</time></trkpt><trkpt lat="55.7693405" lon="49.4776601"><time>2024-09-07T09:15:43.450</time></trkpt><trkpt lat="55.7693716" lon="49.4775691"><time>2024-09-07T09:15:45.440</time></trkpt><trkpt lat="55.7694110" lon="49.4774886"><time>2024-09-07T09:15:47.450</time></trkpt><trkpt lat="55.7694441" lon="49.4773925"><time>2024-09-07T09:15:49.433</time></trkpt><trkpt lat="55.7694760" lon="49.4772818"><time>2024-09-07T09:15:51.450</time></trkpt><trkpt lat="55.7695073" lon="49.4771727"><time>2024-09-07T09:15:53.450</time></trkpt><trkpt lat="55.7695346" lon="49.4770562"><time>2024-09-07T09:15:55.440</time></trkpt><trkpt lat="55.7695652" lon="49.4769440"><time>2024-09-07T09:15:57.440</time></trkpt><trkpt lat="55.7695918" lon="49.4768416"><time>2024-09-07T09:15:59.450</time></trkpt><trkpt lat="55.7696126" lon="49.4767365"><time>2024-09-07T09:16:01.440</time></trkpt><trkpt lat="55.7696338" lon="49.4766308"><time>2024-09-07T09:16:03.443</time></trkpt><trkpt lat="55.7696601" lon="49.4765264"><time>2024-09-07T09:16:05.440</time></trkpt><trkpt lat="55.7696711" lon="49.4764056"><time>2024-09-07T09:16:07.443</time></trkpt><trkpt lat="55.7696869" lon="49.4762967"><time>2024-09-07T09:16:09.443</time></trkpt><trkpt lat="55.7697096" lon="49.4761920"><time>2024-09-07T09:16:11.437</time></trkpt><trkpt lat="55.7697343" lon="49.4760922"><time>2024-09-07T09:16:13.440</time></trkpt><trkpt lat="55.7701818" lon="49.4743699"><time>2024-09-07T09:17:39.560</time></trkpt><trkpt lat="55.7702233" lon="49.4744064"><time>2024-09-07T09:17:40.427</time></trkpt><trkpt lat="55.7702514" lon="49.4743705"><time>2024-09-07T09:17:51.483</time></trkpt><trkpt lat="55.7702613" lon="49.4744593"><time>2024-09-07T09:17:57.443</time></trkpt><trkpt lat="55.7702986" lon="49.4745224"><time>2024-09-07T09:18:02.433</time></trkpt><trkpt lat="55.7703117" lon="49.4746193"><time>2024-09-07T09:18:06.197</time></trkpt><trkpt lat="55.7703318" lon="49.4747092"><time>2024-09-07T09:18:10.433</time></trkpt><trkpt lat="55.7703390" lon="49.4747962"><time>2024-09-07T09:18:14.433</time></trkpt><trkpt lat="55.7703163" lon="49.4748870"><time>2024-09-07T09:18:16.443</time></trkpt><trkpt lat="55.7703176" lon="49.4749905"><time>2024-09-07T09:18:18.433</time></trkpt><trkpt lat="55.7703691" lon="49.4750795"><time>2024-09-07T09:18:20.447</time></trkpt><trkpt lat="55.7704268" lon="49.4751335"><time>2024-09-07T09:18:22.433</time></trkpt><trkpt lat="55.7704794" lon="49.4751806"><time>2024-09-07T09:18:24.433</time></trkpt><trkpt lat="55.7705063" lon="49.4752667"><time>2024-09-07T09:18:26.437</time></trkpt><trkpt lat="55.7705051" lon="49.4753702"><time>2024-09-07T09:18:28.437</time></trkpt><trkpt lat="55.7705056" lon="49.4754756"><time>2024-09-07T09:18:30.437</time></trkpt><trkpt lat="55.7705125" lon="49.4755789"><time>2024-09-07T09:18:32.437</time></trkpt><trkpt lat="55.7705235" lon="49.4756868"><time>2024-09-07T09:18:34.437</time></trkpt><trkpt lat="55.7705313" lon="49.4757936"><time>2024-09-07T09:18:36.440</time></trkpt><trkpt lat="55.7705448" lon="49.4759003"><time>2024-09-07T09:18:38.440</time></trkpt><trkpt lat="55.7705603" lon="49.4760015"><time>2024-09-07T09:18:40.437</time></trkpt><trkpt lat="55.7705722" lon="49.4761025"><time>2024-09-07T09:18:42.433</time></trkpt><trkpt lat="55.7705832" lon="49.4762061"><time>2024-09-07T09:18:44.437</time></trkpt><trkpt lat="55.7705918" lon="49.4763112"><time>2024-09-07T09:18:46.433</time></trkpt><trkpt lat="55.7706041" lon="49.4764155"><time>2024-09-07T09:18:48.433</time></trkpt><trkpt lat="55.7706180" lon="49.4765169"><time>2024-09-07T09:18:50.437</time></trkpt><trkpt lat="55.7706333" lon="49.4766127"><time>2024-09-07T09:18:52.437</time></trkpt><trkpt lat="55.7706508" lon="49.4767054"><time>2024-09-07T09:18:54.440</time></trkpt><trkpt lat="55.7706838" lon="49.4767754"><time>2024-09-07T09:18:56.443</time></trkpt><trkpt lat="55.7707032" lon="49.4768554"><time>2024-09-07T09:19:00.440</time></trkpt><trkpt lat="55.7707199" lon="49.4769402"><time>2024-09-07T09:19:04.437</time></trkpt><trkpt lat="55.7707360" lon="49.4770328"><time>2024-09-07T09:19:08.437</time></trkpt><trkpt lat="55.7708106" lon="49.4776456"><time>2024-09-07T09:19:38.130</time></trkpt><trkpt lat="55.7708124" lon="49.4777319"><time>2024-09-07T09:19:40.437</time></trkpt><trkpt lat="55.7708147" lon="49.4778243"><time>2024-09-07T09:19:44.437</time></trkpt><trkpt lat="55.7708232" lon="49.4779158"><time>2024-09-07T09:19:48.437</time></trkpt><trkpt lat="55.7708346" lon="49.4779982"><time>2024-09-07T09:19:52.437</time></trkpt><trkpt lat="55.7708461" lon="49.4780816"><time>2024-09-07T09:19:56.440</time></trkpt><trkpt lat="55.7708624" lon="49.4781734"><time>2024-09-07T09:20:00.443</time></trkpt><trkpt lat="55.7708753" lon="49.4782652"><time>2024-09-07T09:20:04.443</time></trkpt><trkpt lat="55.7708883" lon="49.4783559"><time>2024-09-07T09:20:08.440</time></trkpt><trkpt lat="55.7709027" lon="49.4784479"><time>2024-09-07T09:20:12.440</time></trkpt><trkpt lat="55.7709266" lon="49.4785358"><time>2024-09-07T09:20:16.520</time></trkpt><trkpt lat="55.7709638" lon="49.4786088"><time>2024-09-07T09:20:20.493</time></trkpt><trkpt lat="55.7710023" lon="49.4786789"><time>2024-09-07T09:20:24.500</time></trkpt><trkpt lat="55.7710386" lon="49.4787431"><time>2024-09-07T09:20:28.443</time></trkpt><trkpt lat="55.7710781" lon="49.4788085"><time>2024-09-07T09:20:32.447</time></trkpt><trkpt lat="55.7711150" lon="49.4788655"><time>2024-09-07T09:20:36.437</time></trkpt><trkpt lat="55.7711586" lon="49.4789105"><time>2024-09-07T09:20:40.497</time></trkpt><trkpt lat="55.7712005" lon="49.4789584"><time>2024-09-07T09:20:44.493</time></trkpt><trkpt lat="55.7712420" lon="49.4790150"><time>2024-09-07T09:20:48.437</time></trkpt><trkpt lat="55.7712775" lon="49.4790732"><time>2024-09-07T09:20:52.440</time></trkpt><trkpt lat="55.7713143" lon="49.4791333"><time>2024-09-07T09:20:56.497</time></trkpt><trkpt lat="55.7713534" lon="49.4791910"><time>2024-09-07T09:21:00.493</time></trkpt><trkpt lat="55.7713943" lon="49.4792315"><time>2024-09-07T09:21:04.497</time></trkpt><trkpt lat="55.7714286" lon="49.4792892"><time>2024-09-07T09:21:08.440</time></trkpt><trkpt lat="55.7714664" lon="49.4793343"><time>2024-09-07T09:21:12.443</time></trkpt><trkpt lat="55.7715057" lon="49.4793792"><time>2024-09-07T09:21:16.450</time></trkpt><trkpt lat="55.7715394" lon="49.4794346"><time>2024-09-07T09:21:20.433</time></trkpt><trkpt lat="55.7715773" lon="49.4794822"><time>2024-09-07T09:21:24.493</time></trkpt><trkpt lat="55.7716218" lon="49.4795322"><time>2024-09-07T09:21:28.437</time></trkpt><trkpt lat="55.7716588" lon="49.4795872"><time>2024-09-07T09:21:32.440</time></trkpt><trkpt lat="55.7717026" lon="49.4796220"><time>2024-09-07T09:21:36.443</time></trkpt><trkpt lat="55.7717512" lon="49.4796568"><time>2024-09-07T09:21:40.440</time></trkpt><trkpt lat="55.7718005" lon="49.4796875"><time>2024-09-07T09:21:44.490</time></trkpt><trkpt lat="55.7718533" lon="49.4797233"><time>2024-09-07T09:21:48.437</time></trkpt><trkpt lat="55.7719025" lon="49.4797660"><time>2024-09-07T09:21:50.437</time></trkpt><trkpt lat="55.7719801" lon="49.4798279"><time>2024-09-07T09:21:52.440</time></trkpt><trkpt lat="55.7720557" lon="49.4798963"><time>2024-09-07T09:21:54.443</time></trkpt><trkpt lat="55.7721332" lon="49.4799678"><time>2024-09-07T09:21:56.450</time></trkpt><trkpt lat="55.7722106" lon="49.4800359"><time>2024-09-07T09:21:58.440</time></trkpt><trkpt lat="55.7722874" lon="49.4801017"><time>2024-09-07T09:22:00.447</time></trkpt><trkpt lat="55.7723613" lon="49.4801643"><time>2024-09-07T09:22:02.453</time></trkpt><trkpt lat="55.7724326" lon="49.4802307"><time>2024-09-07T09:22:04.440</time></trkpt><trkpt lat="55.7725006" lon="49.4802984"><time>2024-09-07T09:22:06.447</time></trkpt><trkpt lat="55.7725636" lon="49.4803591"><time>2024-09-07T09:22:08.433</time></trkpt><trkpt lat="55.7726302" lon="49.4804121"><time>2024-09-07T09:22:10.443</time></trkpt><trkpt lat="55.7726926" lon="49.4804658"><time>2024-09-07T09:22:12.437</time></trkpt><trkpt lat="55.7727520" lon="49.4805208"><time>2024-09-07T09:22:14.443</time></trkpt><trkpt lat="55.7728113" lon="49.4805795"><time>2024-09-07T09:22:16.440</time></trkpt><trkpt lat="55.7728691" lon="49.4806356"><time>2024-09-07T09:22:18.433</time></trkpt><trkpt lat="55.7729257" lon="49.4806919"><time>2024-09-07T09:22:20.447</time></trkpt><trkpt lat="55.7729813" lon="49.4807512"><time>2024-09-07T09:22:22.447</time></trkpt><trkpt lat="55.7730359" lon="49.4808066"><time>2024-09-07T09:22:24.443</time></trkpt><trkpt lat="55.7730826" lon="49.4808574"><time>2024-09-07T09:22:27.430</time></trkpt><trkpt lat="55.7731209" lon="49.4809016"><time>2024-09-07T09:22:30.433</time></trkpt><trkpt lat="55.7731707" lon="49.4809414"><time>2024-09-07T09:22:35.447</time></trkpt><trkpt lat="55.7732152" lon="49.4809971"><time>2024-09-07T09:22:39.450</time></trkpt><trkpt lat="55.7732613" lon="49.4810421"><time>2024-09-07T09:22:41.443</time></trkpt><trkpt lat="55.7733140" lon="49.4810921"><time>2024-09-07T09:22:43.433</time></trkpt><trkpt lat="55.7733675" lon="49.4811376"><time>2024-09-07T09:22:45.447</time></trkpt><trkpt lat="55.7734223" lon="49.4811837"><time>2024-09-07T09:22:47.443</time></trkpt><trkpt lat="55.7734733" lon="49.4812356"><time>2024-09-07T09:22:49.447</time></trkpt><trkpt lat="55.7753350" lon="49.4837346"><time>2024-09-07T09:24:27.433</time></trkpt><trkpt lat="55.7753686" lon="49.4837957"><time>2024-09-07T09:24:31.727</time></trkpt><trkpt lat="55.7754915" lon="49.4859330"><time>2024-09-07T09:25:39.393</time></trkpt><trkpt lat="55.7755562" lon="49.4860262"><time>2024-09-07T09:25:40.437</time></trkpt><trkpt lat="55.7755644" lon="49.4861056"><time>2024-09-07T09:25:43.430</time></trkpt><trkpt lat="55.7755728" lon="49.4862008"><time>2024-09-07T09:25:49.437</time></trkpt><trkpt lat="55.7755739" lon="49.4862887"><time>2024-09-07T09:25:53.437</time></trkpt><trkpt lat="55.7755830" lon="49.4863793"><time>2024-09-07T09:25:57.437</time></trkpt><trkpt lat="55.7755938" lon="49.4864894"><time>2024-09-07T09:26:00.437</time></trkpt><trkpt lat="55.7756004" lon="49.4865885"><time>2024-09-07T09:26:02.437</time></trkpt><trkpt lat="55.7756003" lon="49.4867001"><time>2024-09-07T09:26:04.450</time></trkpt><trkpt lat="55.7755966" lon="49.4868175"><time>2024-09-07T09:26:06.440</time></trkpt><trkpt lat="55.7755947" lon="49.4869306"><time>2024-09-07T09:26:08.430</time></trkpt><trkpt lat="55.7755965" lon="49.4870554"><time>2024-09-07T09:26:10.433</time></trkpt><trkpt lat="55.7755982" lon="49.4871792"><time>2024-09-07T09:26:12.433</time></trkpt><trkpt lat="55.7755993" lon="49.4873075"><time>2024-09-07T09:26:14.443</time></trkpt><trkpt lat="55.7755971" lon="49.4874274"><time>2024-09-07T09:26:16.437</time></trkpt><trkpt lat="55.7755960" lon="49.4875332"><time>2024-09-07T09:26:18.430</time></trkpt><trkpt lat="55.7755963" lon="49.4876383"><time>2024-09-07T09:26:20.440</time></trkpt><trkpt lat="55.7755956" lon="49.4877503"><time>2024-09-07T09:26:22.437</time></trkpt><trkpt lat="55.7755947" lon="49.4878572"><time>2024-09-07T09:26:24.440</time></trkpt><trkpt lat="55.7755881" lon="49.4879719"><time>2024-09-07T09:26:26.437</time></trkpt><trkpt lat="55.7755879" lon="49.4880741"><time>2024-09-07T09:26:28.430</time></trkpt><trkpt lat="55.7755947" lon="49.4881703"><time>2024-09-07T09:26:30.443</time></trkpt><trkpt lat="55.7756078" lon="49.4882603"><time>2024-09-07T09:26:32.440</time></trkpt><trkpt lat="55.7756256" lon="49.4883429"><time>2024-09-07T09:26:34.437</time></trkpt><trkpt lat="55.7756488" lon="49.4884179"><time>2024-09-07T09:26:37.433</time></trkpt><trkpt lat="55.7760378" lon="49.4890147"><time>2024-09-07T09:28:16.970</time></trkpt><trkpt lat="55.7760378" lon="49.4890147"><time>2024-09-07T09:28:17.350</time></trkpt><trkpt lat="55.7760175" lon="49.4890958"><time>2024-09-07T09:28:22.433</time></trkpt><trkpt lat="55.7760133" lon="49.4891801"><time>2024-09-07T09:28:25.437</time></trkpt><trkpt lat="55.7760016" lon="49.4892688"><time>2024-09-07T09:28:30.440</time></trkpt><trkpt lat="55.7760373" lon="49.4893376"><time>2024-09-07T09:28:34.447</time></trkpt><trkpt lat="55.7760761" lon="49.4893910"><time>2024-09-07T09:28:38.447</time></trkpt><trkpt lat="55.7761310" lon="49.4894179"><time>2024-09-07T09:28:42.443</time></trkpt><trkpt lat="55.7760876" lon="49.4894762"><time>2024-09-07T09:28:48.450</time></trkpt><trkpt lat="55.7761063" lon="49.4895595"><time>2024-09-07T09:28:51.447</time></trkpt><trkpt lat="55.7761252" lon="49.4896396"><time>2024-09-07T09:28:55.440</time></trkpt><trkpt lat="55.7761405" lon="49.4897353"><time>2024-09-07T09:29:00.440</time></trkpt><trkpt lat="55.7761985" lon="49.4897413"><time>2024-09-07T09:29:03.440</time></trkpt><trkpt lat="55.7762400" lon="49.4897063"><time>2024-09-07T09:29:05.440</time></trkpt><trkpt lat="55.7762954" lon="49.4896754"><time>2024-09-07T09:29:07.443</time></trkpt><trkpt lat="55.7763488" lon="49.4896466"><time>2024-09-07T09:29:11.447</time></trkpt><trkpt lat="55.7763968" lon="49.4896344"><time>2024-09-07T09:29:16.433</time></trkpt><trkpt lat="55.7765967" lon="49.4895968"><time>2024-09-07T09:29:32.907</time></trkpt><trkpt lat="55.7766594" lon="49.4895973"><time>2024-09-07T09:29:36.433</time></trkpt><trkpt lat="55.7767137" lon="49.4895750"><time>2024-09-07T09:29:40.437</time></trkpt><trkpt lat="55.7767703" lon="49.4895512"><time>2024-09-07T09:29:44.437</time></trkpt><trkpt lat="55.7768143" lon="49.4895321"><time>2024-09-07T09:29:47.437</time></trkpt><trkpt lat="55.7768710" lon="49.4895010"><time>2024-09-07T09:29:51.437</time></trkpt><trkpt lat="55.7769271" lon="49.4894781"><time>2024-09-07T09:29:55.437</time></trkpt><trkpt lat="55.7769854" lon="49.4894911"><time>2024-09-07T09:29:59.437</time></trkpt><trkpt lat="55.7770298" lon="49.4895076"><time>2024-09-07T09:30:02.437</time></trkpt><trkpt lat="55.7770853" lon="49.4895287"><time>2024-09-07T09:30:06.433</time></trkpt><trkpt lat="55.7771363" lon="49.4895538"><time>2024-09-07T09:30:10.457</time></trkpt><trkpt lat="55.7771903" lon="49.4895753"><time>2024-09-07T09:30:14.433</time></trkpt><trkpt lat="55.7772483" lon="49.4895821"><time>2024-09-07T09:30:18.437</time></trkpt><trkpt lat="55.7772962" lon="49.4895676"><time>2024-09-07T09:30:29.437</time></trkpt><trkpt lat="55.7788377" lon="49.4866173"><time>2024-09-07T09:33:01.217</time></trkpt><trkpt lat="55.7789078" lon="49.4866251"><time>2024-09-07T09:33:03.437</time></trkpt><trkpt lat="55.7789645" lon="49.4866289"><time>2024-09-07T09:33:05.437</time></trkpt><trkpt lat="55.7790164" lon="49.4866276"><time>2024-09-07T09:33:08.437</time></trkpt><trkpt lat="55.7790801" lon="49.4866100"><time>2024-09-07T09:33:12.433</time></trkpt><trkpt lat="55.7791321" lon="49.4866274"><time>2024-09-07T09:33:14.440</time></trkpt><trkpt lat="55.7791766" lon="49.4866728"><time>2024-09-07T09:33:16.447</time></trkpt><trkpt lat="55.7792166" lon="49.4867366"><time>2024-09-07T09:33:18.437</time></trkpt><trkpt lat="55.7792555" lon="49.4868119"><time>2024-09-07T09:33:21.443</time></trkpt><trkpt lat="55.7792840" lon="49.4868995"><time>2024-09-07T09:33:25.443</time></trkpt><trkpt lat="55.7793219" lon="49.4869703"><time>2024-09-07T09:33:29.440</time></trkpt><trkpt lat="55.7793559" lon="49.4870498"><time>2024-09-07T09:33:33.433</time></trkpt><trkpt lat="55.7793880" lon="49.4871257"><time>2024-09-07T09:33:36.447</time></trkpt><trkpt lat="55.7794220" lon="49.4871993"><time>2024-09-07T09:33:40.443</time></trkpt><trkpt lat="55.7794553" lon="49.4872735"><time>2024-09-07T09:33:44.443</time></trkpt><trkpt lat="55.7794886" lon="49.4873455"><time>2024-09-07T09:33:48.440</time></trkpt><trkpt lat="55.7795392" lon="49.4873845"><time>2024-09-07T09:33:52.440</time></trkpt><trkpt lat="55.7795871" lon="49.4873313"><time>2024-09-07T09:33:56.433</time></trkpt><trkpt lat="55.7796188" lon="49.4872668"><time>2024-09-07T09:34:00.500</time></trkpt><trkpt lat="55.7796696" lon="49.4872386"><time>2024-09-07T09:34:05.427</time></trkpt></trkseg></trk></gpx>